Time;durP1;ratioP1;P1;durP2;ratioP2;P2;SDS_P1;SDS_P2;PMS_P1;PMS_P2;Temp;Humidity;BMP_temperature;BMP_pressure;BME280_temperature;BME280_humidity;BME280_pressure;Samples;Min_cycle;Max_cycle;Signal;HPM_P1;HPM_P2
2022/05/06 00:00:14;;;;;;;26.30;21.60;;;10.20;84.50;;;;;;5024974;28;20036;-87
2022/05/06 00:02:40;;;;;;;30.63;22.55;;;10.10;84.40;;;;;;5022154;28;20037;-84
2022/05/06 00:05:07;;;;;;;29.25;23.10;;;10.10;84.60;;;;;;5019793;28;20041;-85
2022/05/06 00:07:34;;;;;;;30.05;22.60;;;10.10;84.80;;;;;;5021921;28;20033;-83
2022/05/06 00:10:01;;;;;;;28.25;21.77;;;10.10;85.00;;;;;;5028622;28;20520;-85
2022/05/06 00:12:27;;;;;;;26.15;21.15;;;10.10;85.00;;;;;;5020328;28;20484;-85
2022/05/06 00:14:53;;;;;;;26.80;21.33;;;10.10;85.00;;;;;;5030505;28;20716;-84
2022/05/06 00:17:19;;;;;;;25.45;19.90;;;10.10;85.00;;;;;;5025797;28;20043;-83
2022/05/06 00:19:45;;;;;;;28.70;21.00;;;10.10;84.80;;;;;;5019534;28;20038;-85
2022/05/06 00:22:11;;;;;;;27.10;21.00;;;10.00;84.80;;;;;;5025894;28;20044;-84
2022/05/06 00:24:38;;;;;;;26.20;20.00;;;10.00;84.70;;;;;;5021829;28;21548;-85
2022/05/06 00:27:04;;;;;;;25.45;19.90;;;10.00;84.60;;;;;;5031000;28;20037;-86
2022/05/06 00:29:30;;;;;;;28.80;20.77;;;9.90;84.40;;;;;;5021561;28;20148;-85
2022/05/06 00:31:56;;;;;;;25.77;21.25;;;9.90;84.40;;;;;;5021068;28;20045;-85
2022/05/06 00:34:22;;;;;;;29.75;21.90;;;9.80;84.20;;;;;;5024667;28;20065;-85
2022/05/06 00:36:48;;;;;;;29.27;21.65;;;9.80;84.30;;;;;;5023570;28;20505;-84
2022/05/06 00:39:14;;;;;;;29.00;23.23;;;9.80;84.30;;;;;;5029015;28;20045;-84
2022/05/06 00:41:39;;;;;;;27.70;22.65;;;9.80;84.30;;;;;;5026465;28;20398;-85
2022/05/06 00:44:06;;;;;;;28.10;22.60;;;9.80;84.30;;;;;;5016932;28;20480;-84
2022/05/06 00:46:33;;;;;;;28.45;21.13;;;9.70;84.10;;;;;;5018654;28;20045;-84
2022/05/06 00:49:00;;;;;;;27.40;21.77;;;9.70;84.30;;;;;;5024198;28;20041;-84
2022/05/06 00:51:26;;;;;;;30.75;23.33;;;9.70;84.40;;;;;;5022697;28;20457;-84
2022/05/06 00:53:54;;;;;;;32.67;24.27;;;9.70;84.40;;;;;;5017004;28;20048;-83
2022/05/06 00:56:24;;;;;;;30.73;23.83;;;9.70;84.60;;;;;;5029121;28;20046;-85
2022/05/06 00:58:51;;;;;;;30.33;23.88;;;9.60;84.80;;;;;;5043603;28;20030;-85
2022/05/06 01:01:16;;;;;;;30.85;24.65;;;9.60;84.80;;;;;;5034958;28;20115;-85
2022/05/06 01:03:42;;;;;;;30.55;23.77;;;9.60;84.90;;;;;;5021257;28;20240;-84
2022/05/06 01:06:13;;;;;;;31.42;24.30;;;9.60;84.90;;;;;;5023638;28;20112;-84
2022/05/06 01:08:41;;;;;;;32.00;24.67;;;9.50;85.00;;;;;;5021463;28;20033;-84
2022/05/06 01:11:07;;;;;;;30.08;23.25;;;9.50;85.10;;;;;;5024378;28;20033;-84
2022/05/06 01:13:44;;;;;;;31.38;23.65;;;9.50;85.10;;;;;;5021641;28;20033;-85
2022/05/06 01:16:13;;;;;;;30.02;23.58;;;9.60;85.20;;;;;;5029783;28;20057;-82
2022/05/06 01:18:40;;;;;;;30.02;24.05;;;9.50;85.20;;;;;;5028530;28;20049;-85
2022/05/06 01:21:06;;;;;;;30.17;24.10;;;9.50;85.10;;;;;;5025081;28;20116;-84
2022/05/06 01:23:32;;;;;;;31.35;23.55;;;9.50;85.00;;;;;;5017135;28;20037;-85
2022/05/06 01:25:59;;;;;;;27.33;22.15;;;9.50;84.90;;;;;;5035172;28;20056;-85
2022/05/06 01:28:26;;;;;;;28.13;22.65;;;9.40;84.80;;;;;;5018497;28;20041;-84
2022/05/06 01:31:00;;;;;;;31.67;22.92;;;9.40;84.70;;;;;;5025145;28;20040;-84
2022/05/06 01:33:28;;;;;;;28.63;22.63;;;9.40;84.70;;;;;;5011980;28;20042;-85
2022/05/06 01:36:09;;;;;;;29.13;23.17;;;9.40;84.70;;;;;;5021275;28;20179;-85
2022/05/06 01:38:37;;;;;;;30.52;23.45;;;9.30;84.80;;;;;;5015651;28;20095;-85
2022/05/06 01:41:06;;;;;;;28.48;22.90;;;9.30;84.90;;;;;;5020091;28;20484;-86
2022/05/06 01:43:42;;;;;;;34.15;24.30;;;9.20;85.00;;;;;;5011270;28;20045;-85
2022/05/06 01:46:09;;;;;;;28.40;22.55;;;9.20;85.10;;;;;;5024509;28;20041;-85
2022/05/06 01:48:36;;;;;;;27.45;22.08;;;9.20;85.10;;;;;;5029923;28;20052;-85
2022/05/06 01:51:04;;;;;;;27.05;21.92;;;9.10;85.10;;;;;;5026194;28;20033;-87
2022/05/06 01:53:31;;;;;;;29.23;22.55;;;9.10;85.20;;;;;;5024927;28;20037;-85
2022/05/06 01:55:56;;;;;;;29.95;23.80;;;9.10;85.20;;;;;;5025816;28;20856;-85
2022/05/06 01:58:22;;;;;;;28.23;23.23;;;9.10;85.30;;;;;;5021737;28;20056;-84
2022/05/06 02:00:48;;;;;;;29.77;22.95;;;9.10;85.30;;;;;;5032056;28;20050;-86
2022/05/06 02:05:57;;;;;;;29.45;22.70;;;9.10;85.50;;;;;;5026627;28;20048;-85
2022/05/06 02:08:23;;;;;;;30.55;23.98;;;9.10;85.50;;;;;;5024705;28;20037;-85
2022/05/06 02:10:49;;;;;;;29.08;23.75;;;9.00;85.50;;;;;;5028039;28;20045;-86
2022/05/06 02:13:15;;;;;;;33.33;24.33;;;9.00;85.50;;;;;;5023174;28;20032;-86
2022/05/06 02:15:40;;;;;;;31.08;23.63;;;9.00;85.50;;;;;;5023990;28;20051;-86
2022/05/06 02:18:09;;;;;;;28.00;22.35;;;9.00;85.60;;;;;;5022926;28;20120;-85
2022/05/06 02:20:35;;;;;;;28.60;22.05;;;8.90;85.60;;;;;;5029347;28;20091;-87
2022/05/06 02:23:01;;;;;;;30.50;22.40;;;8.90;85.70;;;;;;5047249;28;20266;-86
2022/05/06 02:25:26;;;;;;;27.20;22.08;;;8.90;85.80;;;;;;5039825;28;20128;-86
2022/05/06 02:27:52;;;;;;;28.50;22.35;;;8.90;85.90;;;;;;5029606;28;20476;-85
2022/05/06 02:33:15;;;;;;;28.50;22.42;;;8.80;85.70;;;;;;5017413;28;20092;-84
2022/05/06 02:35:41;;;;;;;26.75;20.50;;;8.80;85.70;;;;;;5021721;28;20033;-85
2022/05/06 02:38:09;;;;;;;25.92;21.15;;;8.70;85.50;;;;;;5027767;28;20171;-86
2022/05/06 02:40:36;;;;;;;25.85;20.90;;;8.60;85.30;;;;;;5022421;28;20036;-86
2022/05/06 02:43:03;;;;;;;24.88;20.98;;;8.60;85.60;;;;;;5021224;28;20396;-85
2022/05/06 02:45:32;;;;;;;27.17;20.85;;;8.50;85.70;;;;;;5018675;28;20090;-85
2022/05/06 02:47:58;;;;;;;31.02;21.38;;;8.50;85.80;;;;;;5018508;28;20049;-84
2022/05/06 02:50:25;;;;;;;26.30;20.60;;;8.60;85.70;;;;;;5019454;28;20168;-85
2022/05/06 02:52:51;;;;;;;28.65;20.98;;;8.50;85.70;;;;;;5021743;28;20095;-85
2022/05/06 02:55:17;;;;;;;26.38;19.40;;;8.50;85.80;;;;;;5027888;28;20049;-86
2022/05/06 02:57:43;;;;;;;25.25;18.98;;;8.50;85.60;;;;;;5017756;28;20036;-86
2022/05/06 03:00:09;;;;;;;30.80;21.98;;;8.50;85.40;;;;;;5030384;28;20037;-85
2022/05/06 03:02:35;;;;;;;30.10;23.42;;;8.50;85.30;;;;;;5024778;28;20033;-84
2022/05/06 03:05:02;;;;;;;26.73;20.05;;;8.40;85.50;;;;;;5024755;28;20131;-85
2022/05/06 03:07:27;;;;;;;26.77;20.98;;;8.40;85.50;;;;;;5019100;28;20041;-85
2022/05/06 03:09:53;;;;;;;29.33;22.05;;;8.40;85.20;;;;;;5024459;28;20041;-85
2022/05/06 03:12:20;;;;;;;27.05;20.75;;;8.40;85.20;;;;;;5019921;28;20083;-85
2022/05/06 03:14:46;;;;;;;23.27;18.63;;;8.30;85.20;;;;;;5030707;28;20613;-86
2022/05/06 03:17:12;;;;;;;27.48;21.08;;;8.30;85.30;;;;;;5041584;28;20025;-84
2022/05/06 03:19:38;;;;;;;22.90;17.75;;;8.30;85.30;;;;;;5048268;28;20041;-84
2022/05/06 03:22:05;;;;;;;22.95;17.92;;;8.30;85.50;;;;;;5028326;28;20092;-84
2022/05/06 03:24:31;;;;;;;25.38;19.60;;;8.20;85.40;;;;;;5020612;28;20542;-85
2022/05/06 03:26:57;;;;;;;31.23;22.17;;;8.20;85.50;;;;;;5027316;28;20041;-85
2022/05/06 03:29:22;;;;;;;24.25;20.48;;;8.10;85.50;;;;;;5031089;28;20037;-86
2022/05/06 03:31:48;;;;;;;26.20;21.45;;;8.20;85.80;;;;;;5025720;28;20520;-84
2022/05/06 03:34:16;;;;;;;28.13;22.75;;;8.20;86.00;;;;;;5025724;28;20779;-85
2022/05/06 03:36:41;;;;;;;31.02;24.45;;;8.30;86.10;;;;;;5030781;28;20038;-85
2022/05/06 03:39:08;;;;;;;31.27;22.98;;;8.40;86.20;;;;;;5025414;28;20394;-86
2022/05/06 03:41:34;;;;;;;30.05;23.02;;;8.30;86.30;;;;;;5035491;28;20033;-86
2022/05/06 03:43:59;;;;;;;26.65;21.58;;;8.40;86.50;;;;;;5021924;28;20045;-84
2022/05/06 03:46:25;;;;;;;38.10;26.13;;;8.40;86.50;;;;;;5028194;28;20479;-84
2022/05/06 03:48:51;;;;;;;34.90;24.63;;;8.40;86.50;;;;;;5023235;28;20037;-85
2022/05/06 03:51:22;;;;;;;36.63;24.73;;;8.40;86.70;;;;;;5028286;28;20821;-85
2022/05/06 03:53:56;;;;;;;33.80;24.33;;;8.50;86.90;;;;;;5025233;28;20096;-85
2022/05/06 03:56:23;;;;;;;39.58;24.05;;;8.60;86.80;;;;;;5026334;28;20041;-84
2022/05/06 03:58:50;;;;;;;42.15;25.50;;;8.60;86.90;;;;;;5032852;28;20064;-83
2022/05/06 04:01:18;;;;;;;40.25;25.20;;;8.70;86.90;;;;;;5032207;28;20056;-87
2022/05/06 04:03:43;;;;;;;47.60;28.95;;;8.70;87.10;;;;;;5029268;28;20033;-88
2022/05/06 04:06:13;;;;;;;81.90;31.38;;;8.80;87.10;;;;;;5036821;28;20495;-87
2022/05/06 04:08:41;;;;;;;50.25;32.03;;;8.80;87.30;;;;;;5036812;28;20037;-85
2022/05/06 04:11:08;;;;;;;49.00;30.38;;;8.80;87.50;;;;;;5031582;28;20029;-84
2022/05/06 04:13:34;;;;;;;52.55;32.08;;;8.80;87.50;;;;;;5030476;28;20538;-87
2022/05/06 04:16:01;;;;;;;45.67;29.48;;;8.90;87.60;;;;;;5022682;28;20052;-86
2022/05/06 04:18:27;;;;;;;47.97;31.80;;;8.90;87.60;;;;;;5034611;28;20065;-86
2022/05/06 04:23:38;;;;;;;43.77;31.00;;;9.10;87.80;;;;;;5019905;28;20040;-85
2022/05/06 04:26:06;;;;;;;46.47;32.13;;;9.10;87.90;;;;;;5017631;28;20037;-84
2022/05/06 04:28:32;;;;;;;44.47;30.45;;;9.10;88.00;;;;;;5023005;28;20030;-86
2022/05/06 04:30:59;;;;;;;49.17;32.38;;;9.10;88.10;;;;;;5024875;28;20041;-89
2022/05/06 04:33:25;;;;;;;50.22;33.25;;;9.10;88.10;;;;;;5019193;28;20056;-85
2022/05/06 04:35:53;;;;;;;52.13;33.95;;;9.10;88.00;;;;;;5020465;28;20069;-84
2022/05/06 04:38:19;;;;;;;54.35;34.42;;;9.20;88.20;;;;;;5031469;28;20044;-85
2022/05/06 04:40:45;;;;;;;105.22;38.42;;;9.20;88.30;;;;;;5034744;28;20068;-86
2022/05/06 04:43:11;;;;;;;52.95;33.55;;;9.10;88.20;;;;;;5024182;28;20037;-85
2022/05/06 04:45:38;;;;;;;59.15;37.17;;;9.10;88.40;;;;;;5018345;28;20053;-84
2022/05/06 04:48:05;;;;;;;76.30;41.33;;;9.20;88.60;;;;;;5013105;28;20073;-85
2022/05/06 04:50:37;;;;;;;62.90;39.30;;;9.30;88.80;;;;;;5015474;28;20038;-84
2022/05/06 04:53:07;;;;;;;49.83;36.28;;;9.30;88.90;;;;;;5021763;28;20045;-85
2022/05/06 04:55:36;;;;;;;49.10;37.22;;;9.40;89.10;;;;;;5026037;28;20053;-85
2022/05/06 04:58:02;;;;;;;55.47;38.88;;;9.40;89.10;;;;;;5023132;28;20524;-84
2022/05/06 05:00:30;;;;;;;53.53;37.42;;;9.50;89.20;;;;;;5009772;28;20136;-83
2022/05/06 05:02:55;;;;;;;77.88;40.03;;;9.60;89.20;;;;;;5021088;28;20057;-85
2022/05/06 05:05:21;;;;;;;54.45;38.65;;;9.50;89.10;;;;;;5015888;28;20069;-84
2022/05/06 05:07:48;;;;;;;50.20;37.42;;;9.60;89.20;;;;;;5013218;28;20049;-83
2022/05/06 05:10:13;;;;;;;51.15;37.83;;;9.70;89.20;;;;;;5015922;28;20033;-81
2022/05/06 05:12:39;;;;;;;72.63;41.97;;;9.70;89.20;;;;;;5009836;28;20090;-82
2022/05/06 05:15:06;;;;;;;59.88;40.65;;;9.80;89.10;;;;;;5010678;28;20128;-84
2022/05/06 05:17:31;;;;;;;90.43;42.05;;;9.90;89.20;;;;;;5016930;28;20037;-82
2022/05/06 05:19:57;;;;;;;43.75;36.90;;;10.00;89.20;;;;;;5016310;28;20041;-83
2022/05/06 05:22:23;;;;;;;57.42;38.55;;;10.00;89.20;;;;;;5013322;28;20029;-81
2022/05/06 05:24:49;;;;;;;44.35;36.13;;;10.10;89.20;;;;;;5017582;28;20055;-81
2022/05/06 05:27:15;;;;;;;47.30;38.92;;;10.10;89.10;;;;;;5005869;28;20132;-84
2022/05/06 05:29:42;;;;;;;47.35;36.55;;;10.20;89.00;;;;;;5012126;28;20041;-82
2022/05/06 05:32:08;;;;;;;47.78;38.25;;;10.20;88.90;;;;;;5023982;28;20048;-83
2022/05/06 05:34:34;;;;;;;48.95;37.83;;;10.30;88.70;;;;;;5025097;28;20556;-82
2022/05/06 05:37:00;;;;;;;43.72;36.05;;;10.40;88.80;;;;;;5015986;28;20049;-81
2022/05/06 05:39:26;;;;;;;53.40;40.53;;;10.40;88.40;;;;;;5015185;28;20037;-81
2022/05/06 05:41:52;;;;;;;45.20;37.92;;;10.50;88.50;;;;;;5015140;28;20081;-82
2022/05/06 05:49:46;;;;;;;659.08;114.90;;;10.60;88.30;;;;;;5012571;28;20040;-82
2022/05/06 05:52:12;;;;;;;88.05;43.70;;;10.60;88.30;;;;;;5023190;28;20029;-82
2022/05/06 05:54:38;;;;;;;226.55;61.22;;;10.60;88.30;;;;;;5015833;28;20037;-82
2022/05/06 05:57:05;;;;;;;62.63;38.05;;;10.70;88.50;;;;;;5011650;28;20107;-81
2022/05/06 05:59:30;;;;;;;46.95;34.58;;;10.80;88.30;;;;;;5009421;28;20034;-83
2022/05/06 06:01:56;;;;;;;50.53;36.28;;;10.90;88.00;;;;;;5015935;28;20053;-82
2022/05/06 06:04:22;;;;;;;48.00;37.42;;;11.00;87.70;;;;;;5028469;28;20025;-83
2022/05/06 06:06:48;;;;;;;42.97;33.75;;;11.10;87.70;;;;;;5037318;28;20047;-83
2022/05/06 06:09:14;;;;;;;56.65;35.42;;;11.10;87.40;;;;;;5028197;28;20028;-84
2022/05/06 06:11:40;;;;;;;42.20;33.92;;;11.20;87.10;;;;;;5020491;28;20033;-82
2022/05/06 06:14:05;;;;;;;40.80;32.35;;;11.30;86.60;;;;;;5019733;28;20932;-84
2022/05/06 06:16:31;;;;;;;42.22;32.15;;;11.40;86.20;;;;;;5015421;28;20042;-82
2022/05/06 06:18:58;;;;;;;40.95;32.70;;;11.40;86.10;;;;;;5022365;28;20053;-83
2022/05/06 06:21:27;;;;;;;45.20;33.03;;;11.40;86.10;;;;;;5013255;28;20041;-82
2022/05/06 06:23:53;;;;;;;62.60;36.15;;;11.50;86.10;;;;;;5024835;28;20037;-84
2022/05/06 06:26:20;;;;;;;39.47;31.17;;;11.50;85.70;;;;;;5021098;28;20637;-82
2022/05/06 06:28:46;;;;;;;87.70;56.55;;;11.60;85.70;;;;;;5016938;28;20260;-82
2022/05/06 06:31:12;;;;;;;72.03;34.53;;;11.80;85.60;;;;;;5017332;28;20041;-83
2022/05/06 06:33:38;;;;;;;56.35;45.03;;;12.00;85.20;;;;;;5015633;28;20508;-82
2022/05/06 06:36:05;;;;;;;36.60;29.95;;;12.10;84.30;;;;;;5014544;28;20033;-83
2022/05/06 06:38:31;;;;;;;116.60;40.13;;;12.10;83.90;;;;;;5025606;28;20868;-85
2022/05/06 06:40:57;;;;;;;464.45;105.88;;;12.20;83.60;;;;;;5020578;28;20037;-83
2022/05/06 06:43:22;;;;;;;79.20;34.80;;;12.20;82.80;;;;;;5012943;28;20378;-83
2022/05/06 06:45:48;;;;;;;51.60;31.60;;;12.30;83.00;;;;;;5018928;28;20050;-83
2022/05/06 06:48:14;;;;;;;43.53;34.85;;;12.60;83.80;;;;;;5012930;28;20107;-83
2022/05/06 06:50:39;;;;;;;63.30;37.70;;;12.60;82.70;;;;;;5013446;28;20064;-83
2022/05/06 06:53:06;;;;;;;55.67;35.65;;;12.70;81.90;;;;;;5017366;28;20055;-85
2022/05/06 06:55:32;;;;;;;54.80;43.17;;;12.70;81.40;;;;;;5015201;28;20042;-83
2022/05/06 06:57:57;;;;;;;64.43;39.05;;;13.00;82.40;;;;;;5012920;28;20071;-82
2022/05/06 07:00:24;;;;;;;46.25;36.13;;;13.10;81.90;;;;;;5011433;28;20136;-83
2022/05/06 07:02:51;;;;;;;50.28;38.80;;;13.10;80.70;;;;;;5015523;28;20116;-82
2022/05/06 07:05:18;;;;;;;50.17;39.08;;;13.10;81.20;;;;;;5012288;28;20602;-84
2022/05/06 07:13:25;;;;;;;62.20;42.70;;;13.30;79.40;;;;;;4999072;28;20140;-82
2022/05/06 07:15:52;;;;;;;57.40;40.65;;;13.60;81.10;;;;;;5021918;28;20044;-82
2022/05/06 07:18:19;;;;;;;52.80;39.53;;;13.80;79.20;;;;;;5010187;28;20400;-85
2022/05/06 07:20:48;;;;;;;55.92;42.97;;;14.00;78.50;;;;;;5020397;28;20041;-83
2022/05/06 07:23:15;;;;;;;54.50;44.08;;;14.00;78.30;;;;;;5014268;28;20129;-84
2022/05/06 07:25:41;;;;;;;55.15;41.42;;;14.10;77.60;;;;;;5017004;28;20541;-83
2022/05/06 07:28:08;;;;;;;58.50;41.88;;;14.20;78.70;;;;;;5035580;28;20069;-83
2022/05/06 07:30:34;;;;;;;57.67;41.80;;;14.40;78.10;;;;;;5016689;28;20034;-85
2022/05/06 07:32:59;;;;;;;50.47;40.30;;;14.60;77.30;;;;;;5018448;28;20038;-82
2022/05/06 07:35:25;;;;;;;53.28;42.40;;;14.60;77.00;;;;;;5013481;28;20048;-85
2022/05/06 07:37:51;;;;;;;54.45;42.45;;;14.90;76.70;;;;;;5007324;28;20582;-82
2022/05/06 07:40:17;;;;;;;57.35;43.40;;;15.00;76.20;;;;;;5015332;28;20033;-82
2022/05/06 07:42:43;;;;;;;63.65;47.90;;;15.10;75.70;;;;;;5010237;28;20060;-84
2022/05/06 07:45:11;;;;;;;66.03;49.05;;;15.20;75.40;;;;;;5007549;28;20520;-82
2022/05/06 07:47:37;;;;;;;59.25;46.55;;;15.30;73.80;;;;;;5016090;28;20457;-84
2022/05/06 07:50:04;;;;;;;58.42;45.20;;;15.50;72.70;;;;;;5016368;28;20041;-83
2022/05/06 07:52:29;;;;;;;55.08;42.63;;;15.60;74.80;;;;;;5013201;28;20048;-84
2022/05/06 07:54:55;;;;;;;54.28;42.38;;;15.70;74.00;;;;;;5010918;28;20349;-83
2022/05/06 07:57:20;;;;;;;53.70;42.08;;;15.90;73.20;;;;;;5011509;28;20511;-84
2022/05/06 07:59:46;;;;;;;89.30;70.13;;;15.90;72.50;;;;;;5013169;28;20047;-83
2022/05/06 08:05:00;;;;;;;47.25;36.88;;;16.20;72.20;;;;;;5012824;28;20298;-85
2022/05/06 08:07:26;;;;;;;50.17;39.00;;;16.40;71.10;;;;;;5007631;28;20121;-83
2022/05/06 08:09:51;;;;;;;46.80;36.80;;;16.60;70.30;;;;;;5015520;28;20037;-84
2022/05/06 08:12:17;;;;;;;43.88;36.53;;;16.70;70.20;;;;;;5022430;28;20378;-83
2022/05/06 08:14:44;;;;;;;43.08;35.22;;;16.70;69.60;;;;;;5016054;28;20061;-85
2022/05/06 08:17:10;;;;;;;41.65;34.10;;;16.80;69.60;;;;;;5020671;28;20029;-82
2022/05/06 08:19:35;;;;;;;41.47;35.88;;;17.10;69.00;;;;;;5027780;28;20171;-83
2022/05/06 08:22:01;;;;;;;38.45;33.83;;;17.20;67.40;;;;;;5025010;28;20615;-84
2022/05/06 08:24:27;;;;;;;42.85;34.55;;;17.40;67.00;;;;;;5020172;28;20076;-83
2022/05/06 08:26:53;;;;;;;39.22;31.67;;;17.50;65.60;;;;;;5029540;28;20560;-81
2022/05/06 08:29:18;;;;;;;36.70;31.75;;;17.60;65.50;;;;;;5023629;28;20043;-82
2022/05/06 08:31:44;;;;;;;39.67;30.40;;;17.70;64.90;;;;;;5020800;28;20535;-81
2022/05/06 08:34:12;;;;;;;35.70;30.10;;;17.80;64.60;;;;;;5016730;28;20033;-82
2022/05/06 08:36:39;;;;;;;40.30;33.92;;;18.00;65.50;;;;;;5008619;28;20064;-82
2022/05/06 08:39:06;;;;;;;32.33;28.67;;;18.00;65.00;;;;;;5016963;28;20036;-82
2022/05/06 08:41:32;;;;;;;36.72;30.67;;;18.00;63.20;;;;;;5012800;28;20026;-82
2022/05/06 08:50:50;;;;;;;34.88;28.83;;;18.00;64.80;;;;;;5015652;28;20426;-84
2022/05/06 08:52:25;;;;;;;32.38;26.48;;;18.50;61.40;;;;;;5023412;28;20530;-84
2022/05/06 08:54:51;;;;;;;29.75;24.98;;;18.50;62.10;;;;;;5038064;28;20392;-86
2022/05/06 08:57:17;;;;;;;28.10;24.60;;;18.70;61.30;;;;;;5027641;28;20046;-83
2022/05/06 08:59:48;;;;;;;27.58;23.77;;;18.90;61.50;;;;;;5022984;28;20080;-83
2022/05/06 09:02:14;;;;;;;31.73;23.80;;;19.10;60.10;;;;;;5017753;28;20075;-82
2022/05/06 09:04:40;;;;;;;29.33;25.13;;;19.30;59.20;;;;;;5021851;28;20053;-83
2022/05/06 09:07:20;;;;;;;29.50;26.30;;;19.50;57.60;;;;;;5023493;28;20140;-82
2022/05/06 09:10:14;;;;;;;27.48;23.77;;;19.70;58.90;;;;;;5023295;28;21108;-83
2022/05/06 09:12:41;;;;;;;31.35;26.48;;;19.60;59.00;;;;;;5047210;28;20033;-83
2022/05/06 09:17:52;;;;;;;30.75;25.52;;;19.40;59.10;;;;;;5022751;28;20115;-82
2022/05/06 09:20:22;;;;;;;30.85;23.40;;;19.50;59.10;;;;;;5011866;28;20041;-81
2022/05/06 09:22:50;;;;;;;30.10;23.95;;;19.80;56.60;;;;;;5022358;28;20029;-84
2022/05/06 09:25:35;;;;;;;31.05;25.25;;;20.00;56.00;;;;;;5019732;28;20327;-83
2022/05/06 09:28:02;;;;;;;28.95;24.20;;;20.10;55.70;;;;;;5026208;28;20241;-82
2022/05/06 09:30:27;;;;;;;31.63;25.35;;;20.30;56.30;;;;;;5018122;28;20075;-82
2022/05/06 09:32:53;;;;;;;27.13;23.45;;;20.20;57.40;;;;;;5024191;28;20045;-81
2022/05/06 09:35:19;;;;;;;29.73;24.20;;;20.20;56.70;;;;;;5017950;28;20072;-81
2022/05/06 09:37:46;;;;;;;28.13;23.95;;;20.20;56.10;;;;;;5024584;28;20117;-82
2022/05/06 09:40:18;;;;;;;28.33;23.27;;;20.00;55.10;;;;;;5019847;28;20492;-82
2022/05/06 09:42:55;;;;;;;24.98;21.17;;;19.90;55.60;;;;;;5026172;28;20348;-82
2022/05/06 09:45:35;;;;;;;25.08;19.58;;;20.10;56.10;;;;;;5027580;28;20282;-83
2022/05/06 09:48:03;;;;;;;22.95;17.88;;;20.10;56.00;;;;;;5018130;28;20049;-80
2022/05/06 09:50:41;;;;;;;21.52;17.35;;;20.20;55.20;;;;;;5015876;28;20490;-81
2022/05/06 09:53:12;;;;;;;17.10;15.30;;;20.50;54.30;;;;;;5025571;28;20040;-81
2022/05/06 09:55:41;;;;;;;17.77;13.82;;;20.40;54.90;;;;;;5043059;28;20055;-81
2022/05/06 09:58:08;;;;;;;15.60;13.25;;;20.10;52.20;;;;;;5018358;28;20514;-82
2022/05/06 10:00:34;;;;;;;20.95;15.48;;;20.20;53.40;;;;;;5019328;28;20060;-82
2022/05/06 10:03:03;;;;;;;19.63;17.50;;;20.50;52.70;;;;;;5020870;28;20497;-83
2022/05/06 10:05:30;;;;;;;20.08;17.52;;;20.80;52.60;;;;;;5021323;28;20082;-82
2022/05/06 10:08:11;;;;;;;24.08;18.90;;;21.10;51.40;;;;;;5013800;28;20472;-81
2022/05/06 10:10:40;;;;;;;22.38;19.98;;;21.40;51.00;;;;;;5022529;28;20049;-84
2022/05/06 10:13:14;;;;;;;21.05;18.48;;;21.60;51.00;;;;;;5021237;28;20106;-81
2022/05/06 10:15:40;;;;;;;23.30;20.08;;;21.60;51.40;;;;;;5024484;28;20505;-84
2022/05/06 10:18:07;;;;;;;22.73;18.73;;;21.80;50.30;;;;;;5018033;28;20089;-81
2022/05/06 10:20:36;;;;;;;19.13;16.92;;;21.70;49.60;;;;;;5022423;28;20219;-80
2022/05/06 10:23:07;;;;;;;16.95;14.90;;;21.80;49.80;;;;;;5015821;28;20040;-82
2022/05/06 10:25:42;;;;;;;22.05;18.02;;;22.00;48.30;;;;;;5016621;28;20038;-81
2022/05/06 10:34:14;;;;;;;18.55;16.58;;;22.00;49.00;;;;;;5021657;28;20134;-82
2022/05/06 10:36:54;;;;;;;18.67;15.68;;;21.90;47.30;;;;;;5019646;28;20037;-82
2022/05/06 10:39:29;;;;;;;18.30;15.05;;;21.60;48.60;;;;;;5005736;28;20038;-84
2022/05/06 10:41:57;;;;;;;;;;;22.10;47.10;;;;;;5026352;28;20033;-82
2022/05/06 10:44:43;;;;;;;19.17;14.85;;;22.10;46.30;;;;;;5001601;28;20369;-88
2022/05/06 10:47:11;;;;;;;18.70;16.15;;;22.20;47.90;;;;;;5007400;28;20128;-82
2022/05/06 10:49:42;;;;;;;18.88;16.48;;;22.20;47.60;;;;;;5008087;28;20500;-84
2022/05/06 10:52:28;;;;;;;19.95;16.70;;;22.10;47.50;;;;;;5005873;28;20045;-81
2022/05/06 10:55:00;;;;;;;19.75;15.65;;;22.10;48.10;;;;;;5007594;28;20041;-82
2022/05/06 10:57:28;;;;;;;16.73;14.82;;;22.40;47.60;;;;;;5009856;28;20153;-83
2022/05/06 11:00:00;;;;;;;17.63;15.85;;;22.80;46.30;;;;;;5010886;28;20553;-82
2022/05/06 11:02:38;;;;;;;21.23;18.05;;;22.60;47.00;;;;;;5010253;28;20550;-82
2022/05/06 11:05:11;;;;;;;18.92;16.92;;;22.50;47.90;;;;;;5003825;28;20568;-82
2022/05/06 11:07:39;;;;;;;20.80;16.80;;;21.90;46.40;;;;;;4998499;28;20646;-84
2022/05/06 11:10:09;;;;;;;18.23;16.27;;;21.90;47.70;;;;;;5001933;28;20044;-84
2022/05/06 11:12:39;;;;;;;19.65;16.95;;;21.80;46.50;;;;;;5003736;28;20041;-83
2022/05/06 11:15:06;;;;;;;18.73;15.63;;;22.10;46.40;;;;;;5002415;28;20060;-82
2022/05/06 11:17:32;;;;;;;20.10;17.40;;;22.10;47.00;;;;;;5001901;28;20037;-83
2022/05/06 11:20:23;;;;;;;20.42;18.00;;;22.20;46.90;;;;;;5007852;28;20044;-84
2022/05/06 11:22:52;;;;;;;19.88;17.77;;;22.20;47.30;;;;;;5008783;28;20034;-83
2022/05/06 11:25:18;;;;;;;22.08;18.77;;;22.60;46.70;;;;;;5001126;28;20112;-83
2022/05/06 11:27:44;;;;;;;20.50;18.42;;;22.50;46.30;;;;;;5006394;28;20172;-84
2022/05/06 11:30:18;;;;;;;21.63;18.73;;;22.30;45.70;;;;;;5005225;28;20429;-84
2022/05/06 11:33:02;;;;;;;19.42;16.98;;;22.10;46.60;;;;;;5009050;28;20029;-84
2022/05/06 11:35:42;;;;;;;20.17;18.05;;;22.10;46.90;;;;;;5006593;28;20049;-86
2022/05/06 11:38:08;;;;;;;20.98;18.77;;;22.10;45.10;;;;;;5008140;28;20803;-85
2022/05/06 11:40:36;;;;;;;17.95;16.00;;;22.40;44.60;;;;;;5010111;28;20044;-85
2022/05/06 11:43:05;;;;;;;19.17;17.13;;;22.50;46.20;;;;;;5009517;28;20137;-85
2022/05/06 11:48:23;;;;;;;20.08;17.98;;;22.50;44.20;;;;;;5006759;28;20610;-85
2022/05/06 11:50:55;;;;;;;20.70;18.50;;;22.80;45.20;;;;;;5006762;28;20099;-84
2022/05/06 11:53:25;;;;;;;19.45;17.30;;;23.10;44.30;;;;;;5007026;28;20074;-82
2022/05/06 11:55:52;;;;;;;18.48;16.58;;;23.20;43.60;;;;;;5007416;28;20054;-85
2022/05/06 11:58:18;;;;;;;20.15;17.30;;;23.20;41.90;;;;;;5003782;28;20330;-84
2022/05/06 12:00:44;;;;;;;22.58;20.27;;;23.10;42.80;;;;;;5008009;28;20041;-85
2022/05/06 12:03:12;;;;;;;21.83;19.17;;;22.90;44.60;;;;;;5007235;28;20036;-84
2022/05/06 12:05:39;;;;;;;21.42;18.63;;;22.70;44.80;;;;;;5009128;28;20056;-86
2022/05/06 12:08:06;;;;;;;20.67;17.73;;;23.00;45.20;;;;;;5008570;28;20041;-85
2022/05/06 12:10:34;;;;;;;22.15;19.92;;;23.20;45.40;;;;;;5006800;28;20087;-85
2022/05/06 12:13:07;;;;;;;18.30;16.40;;;23.20;44.50;;;;;;5007687;28;20088;-88
2022/05/06 12:15:38;;;;;;;21.45;19.15;;;23.40;44.70;;;;;;5005515;28;20095;-86
2022/05/06 12:18:10;;;;;;;22.58;20.20;;;23.50;44.60;;;;;;5020597;28;20374;-83
2022/05/06 12:20:48;;;;;;;21.70;19.38;;;23.10;45.50;;;;;;5027574;28;20033;-83
2022/05/06 12:23:15;;;;;;;26.15;21.02;;;22.70;43.80;;;;;;5012383;28;20125;-84
2022/05/06 12:25:41;;;;;;;21.90;19.73;;;22.60;44.30;;;;;;5013802;28;20041;-85
2022/05/06 12:28:20;;;;;;;19.58;17.48;;;22.90;45.70;;;;;;5012799;28;20038;-83
2022/05/06 12:30:47;;;;;;;20.17;17.27;;;22.80;43.60;;;;;;5014893;28;20248;-82
2022/05/06 12:33:15;;;;;;;20.75;18.30;;;23.20;44.00;;;;;;5008891;28;20161;-85
2022/05/06 12:35:55;;;;;;;22.27;19.98;;;23.70;41.80;;;;;;5024492;28;20594;-84
2022/05/06 12:38:22;;;;;;;22.95;20.65;;;23.70;42.60;;;;;;5023851;28;20094;-84
2022/05/06 12:40:53;;;;;;;20.73;18.52;;;23.90;41.40;;;;;;5013266;28;20083;-84
2022/05/06 12:43:26;;;;;;;23.13;20.23;;;24.20;41.70;;;;;;5022728;28;20025;-86
2022/05/06 12:45:55;;;;;;;18.48;16.58;;;24.40;41.30;;;;;;5042685;28;20123;-84
2022/05/06 12:51:07;;;;;;;18.92;15.98;;;23.80;42.10;;;;;;5014264;28;20103;-85
2022/05/06 12:53:34;;;;;;;17.92;14.88;;;23.80;41.40;;;;;;5017624;28;20029;-84
2022/05/06 12:56:02;;;;;;;15.95;14.27;;;24.10;41.10;;;;;;5017375;28;20056;-83
2022/05/06 12:58:30;;;;;;;16.65;14.60;;;24.30;39.80;;;;;;5025679;28;20079;-83
2022/05/06 13:01:00;;;;;;;18.25;15.90;;;24.60;40.10;;;;;;5021901;28;20105;-85
2022/05/06 13:03:29;;;;;;;18.70;15.85;;;24.60;40.70;;;;;;5020746;28;20038;-83
2022/05/06 13:05:55;;;;;;;18.52;16.15;;;24.30;40.10;;;;;;5016555;28;20041;-83
2022/05/06 13:08:24;;;;;;;18.17;16.25;;;24.30;41.30;;;;;;5016547;28;20602;-86
2022/05/06 13:10:51;;;;;;;19.08;15.18;;;23.90;41.80;;;;;;5022945;28;20661;-86
2022/05/06 13:13:17;;;;;;;16.60;14.90;;;23.90;42.00;;;;;;5031349;28;20026;-85
2022/05/06 13:15:43;;;;;;;17.30;15.50;;;24.20;41.30;;;;;;5037280;28;20106;-86